createdAt,value
2023-03-04T00:02:48.104Z,100.00
2023-03-04T00:05:14.610Z,100.00
2023-03-04T00:07:41.031Z,100.00
2023-03-04T00:10:07.771Z,100.00
2023-03-04T00:12:34.197Z,100.00
2023-03-04T00:15:11.459Z,100.00
2023-03-04T00:17:39.568Z,100.00
2023-03-04T00:20:06.420Z,100.00
2023-03-04T00:23:02.381Z,100.00
2023-03-04T00:25:28.977Z,100.00
2023-03-04T00:27:55.430Z,100.00
2023-03-04T00:30:21.842Z,100.00
2023-03-04T00:32:48.254Z,100.00
2023-03-04T00:35:14.673Z,100.00
2023-03-04T00:37:53.909Z,100.00
2023-03-04T00:40:22.160Z,100.00
2023-03-04T00:42:48.616Z,100.00
2023-03-04T00:45:15.123Z,100.00
2023-03-04T00:47:41.588Z,100.00
2023-03-04T00:53:04.693Z,100.00
2023-03-04T00:55:34.221Z,100.00
2023-03-04T00:58:00.983Z,100.00
2023-03-04T01:00:31.331Z,100.00
2023-03-04T01:02:57.854Z,100.00
2023-03-04T01:05:24.312Z,100.00
2023-03-04T01:07:51.866Z,100.00
2023-03-04T01:10:19.373Z,100.00
2023-03-04T01:12:45.872Z,100.00
2023-03-04T01:15:13.239Z,100.00
2023-03-04T01:17:43.783Z,100.00
2023-03-04T01:20:11.763Z,100.00
2023-03-04T01:22:41.365Z,100.00
2023-03-04T01:25:08.066Z,100.00
2023-03-04T01:27:34.568Z,100.00
2023-03-04T01:30:01.051Z,100.00
2023-03-04T01:35:08.435Z,100.00
2023-03-04T01:37:34.944Z,100.00
2023-03-04T01:42:42.262Z,99.70
2023-03-04T01:45:12.165Z,99.86
2023-03-04T01:47:39.044Z,100.00
2023-03-04T01:50:10.847Z,100.00
2023-03-04T01:52:38.787Z,100.00
2023-03-04T01:55:10.524Z,100.00
2023-03-04T01:57:39.277Z,100.00
2023-03-04T02:00:20.319Z,100.00
2023-03-04T02:02:48.157Z,100.00
2023-03-04T02:05:17.801Z,100.00
2023-03-04T02:07:46.115Z,100.00
2023-03-04T02:17:33.729Z,100.00
2023-03-04T02:20:10.458Z,100.00
2023-03-04T02:22:39.836Z,100.00
2023-03-04T02:25:15.924Z,100.00
2023-03-04T02:27:42.967Z,100.00
2023-03-04T02:30:17.744Z,100.00
2023-03-04T02:32:44.738Z,100.00
2023-03-04T02:35:16.770Z,100.00
2023-03-04T02:37:50.032Z,100.00
2023-03-04T02:47:17.812Z,100.00
2023-03-04T02:49:44.578Z,100.00
2023-03-04T02:52:14.954Z,100.00
2023-03-04T02:54:41.362Z,100.00
2023-03-04T02:59:50.006Z,100.00
2023-03-04T03:02:16.481Z,100.00
2023-03-04T03:04:42.927Z,100.00
2023-03-04T03:07:16.280Z,100.00
2023-03-04T03:09:43.107Z,100.00
2023-03-04T03:12:14.886Z,100.00
2023-03-04T03:17:22.606Z,100.00
2023-03-04T03:19:49.125Z,100.00
2023-03-04T03:22:21.733Z,100.00
2023-03-04T03:27:38.280Z,100.00
2023-03-04T03:30:09.917Z,100.00
2023-03-04T03:32:37.649Z,100.00
2023-03-04T03:38:24.828Z,100.00
2023-03-04T03:40:59.036Z,100.00
2023-03-04T03:43:29.079Z,100.00
2023-03-04T03:45:56.512Z,100.00
2023-03-04T03:48:25.257Z,100.00
2023-03-04T03:50:52.792Z,100.00
2023-03-04T03:53:19.178Z,100.00
2023-03-04T03:55:45.832Z,100.00
2023-03-04T04:01:42.796Z,100.00
2023-03-04T04:04:15.672Z,100.00
2023-03-04T04:09:21.336Z,100.00
2023-03-04T04:11:48.693Z,100.00
2023-03-04T04:14:18.565Z,100.00
2023-03-04T04:16:46.387Z,100.00
2023-03-04T04:19:17.292Z,100.00
2023-03-04T04:21:43.824Z,100.00
2023-03-04T04:24:10.899Z,100.00
2023-03-04T04:26:37.393Z,100.00
2023-03-04T04:29:06.010Z,100.00
2023-03-04T04:31:34.681Z,100.00
2023-03-04T04:34:01.418Z,100.00
2023-03-04T04:36:42.544Z,100.00
2023-03-04T04:39:12.230Z,100.00
2023-03-04T04:41:49.839Z,100.00
2023-03-04T04:47:01.857Z,100.00
2023-03-04T04:49:53.250Z,100.00
2023-03-04T04:52:35.981Z,100.00
2023-03-04T04:55:03.196Z,100.00
2023-03-04T04:57:32.296Z,100.00
2023-03-04T05:00:12.673Z,100.00
2023-03-04T05:02:39.758Z,100.00
2023-03-04T05:07:50.057Z,100.00
2023-03-04T05:10:16.763Z,100.00
2023-03-04T05:15:30.420Z,100.00
2023-03-04T05:17:57.778Z,100.00
2023-03-04T05:23:05.605Z,100.00
2023-03-04T05:25:35.061Z,100.00
2023-03-04T05:28:20.232Z,100.00
2023-03-04T05:30:54.572Z,100.00
2023-03-04T05:33:21.480Z,100.00
2023-03-04T05:38:46.563Z,100.00
2023-03-04T05:41:13.077Z,100.00
2023-03-04T05:43:42.954Z,100.00
2023-03-04T05:49:41.912Z,100.00
2023-03-04T05:55:48.355Z,100.00
2023-03-04T05:58:19.443Z,100.00
2023-03-04T06:04:18.017Z,100.00
2023-03-04T06:06:46.689Z,100.00
2023-03-04T06:12:07.984Z,100.00
2023-03-04T06:14:36.874Z,100.00
2023-03-04T06:22:30.020Z,100.00
2023-03-04T06:27:44.743Z,100.00
2023-03-04T06:30:46.944Z,100.00
2023-03-04T06:36:41.855Z,100.00
2023-03-04T06:39:16.851Z,100.00
2023-03-04T06:41:43.712Z,100.00
2023-03-04T06:44:45.142Z,100.00
2023-03-04T06:50:43.041Z,100.00
2023-03-04T06:53:19.466Z,100.00
2023-03-04T06:56:05.246Z,100.00
2023-03-04T06:58:34.230Z,100.00
2023-03-04T07:01:36.489Z,100.00
2023-03-04T07:11:13.911Z,100.00
2023-03-04T07:17:15.132Z,100.00
2023-03-04T07:26:22.448Z,100.00
2023-03-04T07:28:49.304Z,100.00
2023-03-04T07:31:32.570Z,100.00
2023-03-04T07:44:13.328Z,100.00
2023-03-04T07:46:46.251Z,100.00
2023-03-04T07:49:17.242Z,100.00
2023-03-04T07:51:45.312Z,100.00
2023-03-04T07:55:39.766Z,100.00
2023-03-04T08:18:05.227Z,100.00
2023-03-04T08:57:50.869Z,100.00
2023-03-04T09:00:17.636Z,100.00
2023-03-04T09:02:44.227Z,99.86
2023-03-04T09:05:13.177Z,99.93
2023-03-04T09:07:47.333Z,98.79
2023-03-04T09:10:34.401Z,97.05
2023-03-04T09:16:11.017Z,93.67
2023-03-04T09:29:50.609Z,85.26
2023-03-04T09:32:19.943Z,85.74
2023-03-04T09:34:46.486Z,86.90
2023-03-04T09:37:13.490Z,86.73
2023-03-04T09:39:53.380Z,86.24
2023-03-04T09:42:59.462Z,86.26
2023-03-04T09:57:26.436Z,86.50
2023-03-04T10:00:20.544Z,85.29
2023-03-04T10:03:16.266Z,83.98
2023-03-04T10:06:02.383Z,83.47
2023-03-04T10:17:07.871Z,84.51
2023-03-04T10:23:20.378Z,83.07
2023-03-04T10:28:27.512Z,81.42
2023-03-04T10:31:03.486Z,83.06
2023-03-04T10:34:52.547Z,83.17
2023-03-04T10:37:43.977Z,82.01
2023-03-04T10:40:25.695Z,83.03
2023-03-04T10:43:00.356Z,81.04
2023-03-04T10:45:31.163Z,78.42
2023-03-04T10:48:29.142Z,78.00
2023-03-04T10:51:10.844Z,77.67
2023-03-04T10:57:23.529Z,77.15
2023-03-04T11:00:06.779Z,76.50
2023-03-04T11:05:25.534Z,74.06
2023-03-04T11:11:54.731Z,73.82
2023-03-04T12:48:01.500Z,64.77
2023-03-04T12:50:46.491Z,65.65
2023-03-04T12:54:01.432Z,64.08
2023-03-04T12:56:41.216Z,64.96
2023-03-04T13:02:46.331Z,63.19
2023-03-04T13:15:44.651Z,64.47
2023-03-04T13:21:55.541Z,65.92
2023-03-04T13:24:52.711Z,66.24
2023-03-04T13:31:52.626Z,65.74
2023-03-04T13:41:58.143Z,67.18
2023-03-04T13:44:57.127Z,65.39
2023-03-04T19:13:31.032Z,69.62
2023-03-04T19:16:57.556Z,70.01
2023-03-04T19:19:32.899Z,70.26
2023-03-04T22:02:03.549Z,78.82
2023-03-04T22:04:30.369Z,78.48
2023-03-04T22:09:41.910Z,78.70
2023-03-04T22:12:39.944Z,78.85
2023-03-04T22:25:28.148Z,79.02
2023-03-04T22:28:22.261Z,79.05
2023-03-04T22:34:24.725Z,77.73
2023-03-04T22:36:56.346Z,78.20
2023-03-04T22:42:43.498Z,77.43
2023-03-04T22:45:15.784Z,77.10
2023-03-04T22:51:58.123Z,77.20
2023-03-04T23:17:11.864Z,76.46
2023-03-04T23:19:43.179Z,76.07
2023-03-04T23:22:10.105Z,75.74
2023-03-04T23:24:37.053Z,75.96
2023-03-04T23:33:31.712Z,77.89
2023-03-04T23:35:58.235Z,78.36
2023-03-04T23:38:24.940Z,78.42
2023-03-04T23:40:52.674Z,79.81
2023-03-04T23:43:34.402Z,82.96
2023-03-04T23:46:05.093Z,83.55
2023-03-04T23:48:32.224Z,84.47
2023-03-04T23:50:59.529Z,84.73
2023-03-04T23:53:26.191Z,87.18
2023-03-04T23:55:52.671Z,85.78
2023-03-04T23:58:21.418Z,85.71
